sensor_id;sensor_type;location;lat;lon;timestamp;P1;durP1;ratioP1;P2;durP2;ratioP2
72584;SDS011;60618;40.084;32.908;2023-02-18T00:01:16;15.18;;;6.78;;
72584;SDS011;60618;40.084;32.908;2023-02-18T00:03:48;16.43;;;7.03;;
72584;SDS011;60618;40.084;32.908;2023-02-18T00:06:17;25.08;;;9.43;;
72584;SDS011;60618;40.084;32.908;2023-02-18T00:08:49;28.08;;;11.50;;
72584;SDS011;60618;40.084;32.908;2023-02-18T00:11:17;27.92;;;11.73;;
72584;SDS011;60618;40.084;32.908;2023-02-18T00:13:48;26.35;;;10.10;;
72584;SDS011;60618;40.084;32.908;2023-02-18T00:16:17;26.80;;;11.07;;
72584;SDS011;60618;40.084;32.908;2023-02-18T00:18:48;28.65;;;10.95;;
72584;SDS011;60618;40.084;32.908;2023-02-18T00:21:15;27.20;;;11.18;;
72584;SDS011;60618;40.084;32.908;2023-02-18T00:23:42;23.08;;;10.02;;
72584;SDS011;60618;40.084;32.908;2023-02-18T00:26:13;25.67;;;10.73;;
72584;SDS011;60618;40.084;32.908;2023-02-18T00:28:41;19.63;;;7.80;;
72584;SDS011;60618;40.084;32.908;2023-02-18T00:31:09;25.92;;;10.93;;
72584;SDS011;60618;40.084;32.908;2023-02-18T00:33:38;26.10;;;10.80;;
72584;SDS011;60618;40.084;32.908;2023-02-18T00:36:07;26.13;;;10.65;;
72584;SDS011;60618;40.084;32.908;2023-02-18T00:38:36;28.20;;;11.68;;
72584;SDS011;60618;40.084;32.908;2023-02-18T00:41:03;30.07;;;12.33;;
72584;SDS011;60618;40.084;32.908;2023-02-18T00:43:30;32.00;;;12.07;;
72584;SDS011;60618;40.084;32.908;2023-02-18T00:45:57;28.70;;;12.02;;
72584;SDS011;60618;40.084;32.908;2023-02-18T00:48:24;26.20;;;10.68;;
72584;SDS011;60618;40.084;32.908;2023-02-18T00:50:51;29.77;;;11.13;;
72584;SDS011;60618;40.084;32.908;2023-02-18T00:53:18;31.30;;;12.37;;
72584;SDS011;60618;40.084;32.908;2023-02-18T00:55:45;30.92;;;12.40;;
72584;SDS011;60618;40.084;32.908;2023-02-18T00:58:13;38.63;;;14.65;;
72584;SDS011;60618;40.084;32.908;2023-02-18T01:00:41;30.15;;;12.40;;
72584;SDS011;60618;40.084;32.908;2023-02-18T01:03:08;31.10;;;12.38;;
72584;SDS011;60618;40.084;32.908;2023-02-18T01:05:36;31.33;;;12.83;;
72584;SDS011;60618;40.084;32.908;2023-02-18T01:08:04;33.25;;;12.63;;
72584;SDS011;60618;40.084;32.908;2023-02-18T01:10:31;30.50;;;11.98;;
72584;SDS011;60618;40.084;32.908;2023-02-18T01:12:58;34.83;;;13.10;;
72584;SDS011;60618;40.084;32.908;2023-02-18T01:15:25;35.60;;;14.48;;
72584;SDS011;60618;40.084;32.908;2023-02-18T01:17:52;31.25;;;12.05;;
72584;SDS011;60618;40.084;32.908;2023-02-18T01:20:19;32.55;;;12.80;;
72584;SDS011;60618;40.084;32.908;2023-02-18T01:22:46;34.63;;;13.05;;
72584;SDS011;60618;40.084;32.908;2023-02-18T01:25:13;33.25;;;12.50;;
72584;SDS011;60618;40.084;32.908;2023-02-18T01:27:41;32.80;;;12.90;;
72584;SDS011;60618;40.084;32.908;2023-02-18T01:30:09;29.55;;;11.52;;
72584;SDS011;60618;40.084;32.908;2023-02-18T01:32:39;28.83;;;10.98;;
72584;SDS011;60618;40.084;32.908;2023-02-18T01:35:06;22.60;;;9.32;;
72584;SDS011;60618;40.084;32.908;2023-02-18T01:37:33;23.75;;;8.80;;
72584;SDS011;60618;40.084;32.908;2023-02-18T01:40:00;22.70;;;9.30;;
72584;SDS011;60618;40.084;32.908;2023-02-18T01:42:27;24.88;;;9.70;;
72584;SDS011;60618;40.084;32.908;2023-02-18T01:45:33;24.90;;;10.45;;
72584;SDS011;60618;40.084;32.908;2023-02-18T01:50:41;23.00;;;9.02;;
72584;SDS011;60618;40.084;32.908;2023-02-18T01:53:17;23.63;;;9.93;;
72584;SDS011;60618;40.084;32.908;2023-02-18T01:55:58;30.25;;;12.40;;
72584;SDS011;60618;40.084;32.908;2023-02-18T01:58:28;26.63;;;11.02;;
72584;SDS011;60618;40.084;32.908;2023-02-18T02:00:55;32.08;;;13.10;;
72584;SDS011;60618;40.084;32.908;2023-02-18T02:03:22;25.52;;;10.93;;
72584;SDS011;60618;40.084;32.908;2023-02-18T02:05:49;27.95;;;11.73;;
72584;SDS011;60618;40.084;32.908;2023-02-18T02:08:16;29.42;;;11.38;;
72584;SDS011;60618;40.084;32.908;2023-02-18T02:16:41;28.35;;;10.77;;
72584;SDS011;60618;40.084;32.908;2023-02-18T02:36:30;26.13;;;10.87;;
72584;SDS011;60618;40.084;32.908;2023-02-18T02:47:37;21.23;;;7.97;;
72584;SDS011;60618;40.084;32.908;2023-02-18T02:50:24;20.80;;;7.80;;
72584;SDS011;60618;40.084;32.908;2023-02-18T02:53:19;23.95;;;8.90;;
72584;SDS011;60618;40.084;32.908;2023-02-18T02:55:49;23.40;;;9.38;;
72584;SDS011;60618;40.084;32.908;2023-02-18T02:58:17;24.17;;;10.45;;
72584;SDS011;60618;40.084;32.908;2023-02-18T03:03:59;25.00;;;9.43;;
72584;SDS011;60618;40.084;32.908;2023-02-18T03:09:20;24.73;;;9.00;;
72584;SDS011;60618;40.084;32.908;2023-02-18T03:14:43;29.92;;;11.05;;
72584;SDS011;60618;40.084;32.908;2023-02-18T03:17:45;24.10;;;9.80;;
72584;SDS011;60618;40.084;32.908;2023-02-18T03:20:24;26.50;;;10.77;;
72584;SDS011;60618;40.084;32.908;2023-02-18T03:22:53;25.15;;;10.27;;
72584;SDS011;60618;40.084;32.908;2023-02-18T03:25:21;28.75;;;10.57;;
72584;SDS011;60618;40.084;32.908;2023-02-18T03:27:51;31.52;;;11.32;;
72584;SDS011;60618;40.084;32.908;2023-02-18T03:30:22;26.38;;;9.60;;
72584;SDS011;60618;40.084;32.908;2023-02-18T03:32:52;21.73;;;8.90;;
72584;SDS011;60618;40.084;32.908;2023-02-18T03:35:25;25.98;;;11.00;;
72584;SDS011;60618;40.084;32.908;2023-02-18T03:37:54;28.67;;;12.02;;
72584;SDS011;60618;40.084;32.908;2023-02-18T03:40:29;28.60;;;11.50;;
72584;SDS011;60618;40.084;32.908;2023-02-18T03:42:57;28.73;;;10.82;;
72584;SDS011;60618;40.084;32.908;2023-02-18T03:45:25;32.90;;;12.18;;
72584;SDS011;60618;40.084;32.908;2023-02-18T03:47:53;29.33;;;10.98;;
72584;SDS011;60618;40.084;32.908;2023-02-18T03:50:19;29.20;;;12.20;;
72584;SDS011;60618;40.084;32.908;2023-02-18T03:52:46;23.95;;;10.02;;
72584;SDS011;60618;40.084;32.908;2023-02-18T03:55:13;25.20;;;10.63;;
72584;SDS011;60618;40.084;32.908;2023-02-18T03:57:40;25.23;;;9.50;;
72584;SDS011;60618;40.084;32.908;2023-02-18T04:00:07;25.63;;;10.48;;
72584;SDS011;60618;40.084;32.908;2023-02-18T04:02:35;28.90;;;10.90;;
72584;SDS011;60618;40.084;32.908;2023-02-18T04:05:02;24.90;;;10.38;;
72584;SDS011;60618;40.084;32.908;2023-02-18T04:07:28;30.88;;;11.45;;
72584;SDS011;60618;40.084;32.908;2023-02-18T04:09:55;30.60;;;12.23;;
72584;SDS011;60618;40.084;32.908;2023-02-18T04:12:22;26.48;;;9.95;;
72584;SDS011;60618;40.084;32.908;2023-02-18T04:14:49;23.45;;;9.73;;
72584;SDS011;60618;40.084;32.908;2023-02-18T04:17:16;28.60;;;11.13;;
72584;SDS011;60618;40.084;32.908;2023-02-18T04:19:43;30.65;;;11.07;;
72584;SDS011;60618;40.084;32.908;2023-02-18T04:22:10;26.20;;;10.68;;
72584;SDS011;60618;40.084;32.908;2023-02-18T04:24:37;26.02;;;11.05;;
72584;SDS011;60618;40.084;32.908;2023-02-18T04:27:04;30.90;;;11.35;;
72584;SDS011;60618;40.084;32.908;2023-02-18T04:29:31;29.17;;;10.90;;
72584;SDS011;60618;40.084;32.908;2023-02-18T04:31:59;26.05;;;10.20;;
72584;SDS011;60618;40.084;32.908;2023-02-18T04:34:26;28.50;;;11.23;;
72584;SDS011;60618;40.084;32.908;2023-02-18T04:36:53;29.77;;;11.93;;
72584;SDS011;60618;40.084;32.908;2023-02-18T04:39:19;29.40;;;11.65;;
72584;SDS011;60618;40.084;32.908;2023-02-18T04:41:46;28.98;;;12.57;;
72584;SDS011;60618;40.084;32.908;2023-02-18T04:44:13;30.75;;;12.02;;
72584;SDS011;60618;40.084;32.908;2023-02-18T04:46:40;37.25;;;16.25;;
72584;SDS011;60618;40.084;32.908;2023-02-18T04:49:07;30.63;;;11.17;;
72584;SDS011;60618;40.084;32.908;2023-02-18T04:51:33;28.35;;;10.90;;
72584;SDS011;60618;40.084;32.908;2023-02-18T04:54:00;29.75;;;11.85;;
72584;SDS011;60618;40.084;32.908;2023-02-18T04:56:27;27.15;;;10.90;;
72584;SDS011;60618;40.084;32.908;2023-02-18T04:58:54;26.45;;;10.38;;
72584;SDS011;60618;40.084;32.908;2023-02-18T05:01:21;27.30;;;10.43;;
72584;SDS011;60618;40.084;32.908;2023-02-18T05:03:48;23.52;;;9.75;;
72584;SDS011;60618;40.084;32.908;2023-02-18T05:06:15;26.42;;;10.00;;
72584;SDS011;60618;40.084;32.908;2023-02-18T05:08:42;28.70;;;10.02;;
72584;SDS011;60618;40.084;32.908;2023-02-18T05:11:09;25.55;;;10.32;;
72584;SDS011;60618;40.084;32.908;2023-02-18T05:13:36;26.27;;;10.60;;
72584;SDS011;60618;40.084;32.908;2023-02-18T05:16:03;25.88;;;10.20;;
72584;SDS011;60618;40.084;32.908;2023-02-18T05:18:30;26.20;;;10.85;;
72584;SDS011;60618;40.084;32.908;2023-02-18T05:20:57;25.52;;;10.25;;
72584;SDS011;60618;40.084;32.908;2023-02-18T05:23:24;24.40;;;10.00;;
72584;SDS011;60618;40.084;32.908;2023-02-18T05:25:51;29.37;;;11.07;;
72584;SDS011;60618;40.084;32.908;2023-02-18T05:28:18;28.90;;;11.02;;
72584;SDS011;60618;40.084;32.908;2023-02-18T05:30:44;29.42;;;11.40;;
72584;SDS011;60618;40.084;32.908;2023-02-18T05:33:12;25.88;;;10.68;;
72584;SDS011;60618;40.084;32.908;2023-02-18T05:35:39;25.52;;;11.50;;
72584;SDS011;60618;40.084;32.908;2023-02-18T05:38:06;29.40;;;11.97;;
72584;SDS011;60618;40.084;32.908;2023-02-18T05:40:32;35.60;;;14.15;;
72584;SDS011;60618;40.084;32.908;2023-02-18T05:42:59;35.20;;;14.43;;
72584;SDS011;60618;40.084;32.908;2023-02-18T05:45:26;34.80;;;14.13;;
72584;SDS011;60618;40.084;32.908;2023-02-18T05:47:53;34.03;;;13.73;;
72584;SDS011;60618;40.084;32.908;2023-02-18T05:50:20;32.47;;;13.70;;
72584;SDS011;60618;40.084;32.908;2023-02-18T05:52:47;33.60;;;13.25;;
72584;SDS011;60618;40.084;32.908;2023-02-18T05:55:14;38.90;;;17.75;;
72584;SDS011;60618;40.084;32.908;2023-02-18T05:57:41;45.50;;;18.35;;
72584;SDS011;60618;40.084;32.908;2023-02-18T06:00:09;36.95;;;14.88;;
72584;SDS011;60618;40.084;32.908;2023-02-18T06:02:37;32.10;;;14.13;;
72584;SDS011;60618;40.084;32.908;2023-02-18T06:05:04;34.15;;;14.55;;
72584;SDS011;60618;40.084;32.908;2023-02-18T06:07:32;38.75;;;14.85;;
72584;SDS011;60618;40.084;32.908;2023-02-18T06:09:59;33.05;;;14.43;;
72584;SDS011;60618;40.084;32.908;2023-02-18T06:12:26;36.08;;;14.43;;
72584;SDS011;60618;40.084;32.908;2023-02-18T06:14:53;30.63;;;14.03;;
72584;SDS011;60618;40.084;32.908;2023-02-18T06:17:20;36.78;;;14.70;;
72584;SDS011;60618;40.084;32.908;2023-02-18T06:19:47;34.45;;;15.68;;
72584;SDS011;60618;40.084;32.908;2023-02-18T06:22:14;37.30;;;16.58;;
72584;SDS011;60618;40.084;32.908;2023-02-18T06:24:41;37.40;;;16.00;;
72584;SDS011;60618;40.084;32.908;2023-02-18T06:27:08;40.30;;;16.37;;
72584;SDS011;60618;40.084;32.908;2023-02-18T06:29:35;37.22;;;15.68;;
72584;SDS011;60618;40.084;32.908;2023-02-18T06:32:02;33.67;;;15.32;;
72584;SDS011;60618;40.084;32.908;2023-02-18T06:34:29;34.25;;;16.27;;
72584;SDS011;60618;40.084;32.908;2023-02-18T06:36:57;35.05;;;15.90;;
72584;SDS011;60618;40.084;32.908;2023-02-18T06:39:26;40.30;;;16.30;;
72584;SDS011;60618;40.084;32.908;2023-02-18T06:41:53;38.80;;;16.20;;
72584;SDS011;60618;40.084;32.908;2023-02-18T06:44:20;25.45;;;11.57;;
72584;SDS011;60618;40.084;32.908;2023-02-18T06:46:50;25.60;;;10.35;;
72584;SDS011;60618;40.084;32.908;2023-02-18T06:49:17;23.73;;;9.60;;
72584;SDS011;60618;40.084;32.908;2023-02-18T06:51:44;21.93;;;9.47;;
72584;SDS011;60618;40.084;32.908;2023-02-18T06:54:11;23.17;;;9.10;;
72584;SDS011;60618;40.084;32.908;2023-02-18T06:56:38;25.88;;;10.38;;
72584;SDS011;60618;40.084;32.908;2023-02-18T06:59:05;23.30;;;9.48;;
72584;SDS011;60618;40.084;32.908;2023-02-18T07:01:32;23.35;;;10.05;;
72584;SDS011;60618;40.084;32.908;2023-02-18T07:03:59;20.53;;;8.97;;
72584;SDS011;60618;40.084;32.908;2023-02-18T07:06:26;23.38;;;8.88;;
72584;SDS011;60618;40.084;32.908;2023-02-18T07:08:53;22.98;;;9.23;;
72584;SDS011;60618;40.084;32.908;2023-02-18T07:11:20;29.42;;;10.13;;
72584;SDS011;60618;40.084;32.908;2023-02-18T07:13:47;23.60;;;8.98;;
72584;SDS011;60618;40.084;32.908;2023-02-18T07:16:14;22.17;;;8.83;;
72584;SDS011;60618;40.084;32.908;2023-02-18T07:18:41;23.63;;;9.10;;
72584;SDS011;60618;40.084;32.908;2023-02-18T07:21:08;20.42;;;8.63;;
72584;SDS011;60618;40.084;32.908;2023-02-18T07:23:34;21.15;;;8.82;;
72584;SDS011;60618;40.084;32.908;2023-02-18T07:26:11;24.65;;;8.98;;
72584;SDS011;60618;40.084;32.908;2023-02-18T07:28:39;22.10;;;8.60;;
72584;SDS011;60618;40.084;32.908;2023-02-18T07:31:07;21.50;;;8.70;;
72584;SDS011;60618;40.084;32.908;2023-02-18T07:33:34;20.10;;;8.57;;
72584;SDS011;60618;40.084;32.908;2023-02-18T07:36:02;19.83;;;9.00;;
72584;SDS011;60618;40.084;32.908;2023-02-18T07:38:29;25.90;;;8.93;;
72584;SDS011;60618;40.084;32.908;2023-02-18T07:40:57;28.17;;;15.57;;
72584;SDS011;60618;40.084;32.908;2023-02-18T07:43:25;23.63;;;10.50;;
72584;SDS011;60618;40.084;32.908;2023-02-18T07:45:52;22.33;;;9.48;;
72584;SDS011;60618;40.084;32.908;2023-02-18T07:48:19;21.00;;;9.73;;
72584;SDS011;60618;40.084;32.908;2023-02-18T07:50:46;31.25;;;10.88;;
72584;SDS011;60618;40.084;32.908;2023-02-18T07:53:14;22.37;;;9.93;;
72584;SDS011;60618;40.084;32.908;2023-02-18T07:55:42;28.42;;;10.88;;
72584;SDS011;60618;40.084;32.908;2023-02-18T07:58:09;24.30;;;10.93;;
72584;SDS011;60618;40.084;32.908;2023-02-18T08:00:36;28.38;;;12.90;;
72584;SDS011;60618;40.084;32.908;2023-02-18T08:03:03;29.27;;;12.88;;
72584;SDS011;60618;40.084;32.908;2023-02-18T08:05:30;27.83;;;12.60;;
72584;SDS011;60618;40.084;32.908;2023-02-18T08:07:56;33.72;;;13.45;;
72584;SDS011;60618;40.084;32.908;2023-02-18T08:10:23;36.47;;;17.48;;
72584;SDS011;60618;40.084;32.908;2023-02-18T08:12:50;39.08;;;15.90;;
72584;SDS011;60618;40.084;32.908;2023-02-18T08:15:17;36.17;;;15.73;;
72584;SDS011;60618;40.084;32.908;2023-02-18T08:17:44;40.23;;;16.53;;
72584;SDS011;60618;40.084;32.908;2023-02-18T08:20:12;39.88;;;17.15;;
72584;SDS011;60618;40.084;32.908;2023-02-18T08:22:39;41.85;;;18.33;;
72584;SDS011;60618;40.084;32.908;2023-02-18T08:25:06;44.38;;;19.35;;
72584;SDS011;60618;40.084;32.908;2023-02-18T08:27:37;42.47;;;18.58;;
72584;SDS011;60618;40.084;32.908;2023-02-18T08:30:04;48.60;;;20.40;;
72584;SDS011;60618;40.084;32.908;2023-02-18T08:32:31;36.70;;;16.48;;
72584;SDS011;60618;40.084;32.908;2023-02-18T08:34:58;36.67;;;15.77;;
72584;SDS011;60618;40.084;32.908;2023-02-18T08:37:28;35.47;;;15.13;;
72584;SDS011;60618;40.084;32.908;2023-02-18T08:40:15;33.15;;;15.13;;
72584;SDS011;60618;40.084;32.908;2023-02-18T08:42:42;33.87;;;15.33;;
72584;SDS011;60618;40.084;32.908;2023-02-18T08:45:09;31.13;;;13.57;;
72584;SDS011;60618;40.084;32.908;2023-02-18T08:47:36;32.83;;;13.18;;
72584;SDS011;60618;40.084;32.908;2023-02-18T08:50:26;25.52;;;11.35;;
72584;SDS011;60618;40.084;32.908;2023-02-18T08:52:53;28.15;;;11.55;;
72584;SDS011;60618;40.084;32.908;2023-02-18T08:55:25;32.60;;;12.27;;
72584;SDS011;60618;40.084;32.908;2023-02-18T08:57:52;30.55;;;11.95;;
72584;SDS011;60618;40.084;32.908;2023-02-18T09:00:19;33.53;;;11.73;;
72584;SDS011;60618;40.084;32.908;2023-02-18T09:02:47;20.95;;;9.10;;
72584;SDS011;60618;40.084;32.908;2023-02-18T09:05:14;25.13;;;10.35;;
72584;SDS011;60618;40.084;32.908;2023-02-18T09:07:41;22.47;;;9.53;;
72584;SDS011;60618;40.084;32.908;2023-02-18T09:10:09;23.38;;;9.43;;
72584;SDS011;60618;40.084;32.908;2023-02-18T09:12:36;25.98;;;10.10;;
72584;SDS011;60618;40.084;32.908;2023-02-18T09:15:04;24.77;;;10.70;;
72584;SDS011;60618;40.084;32.908;2023-02-18T09:17:32;23.67;;;10.30;;
72584;SDS011;60618;40.084;32.908;2023-02-18T09:19:59;24.23;;;10.37;;
72584;SDS011;60618;40.084;32.908;2023-02-18T09:22:28;24.08;;;10.20;;
72584;SDS011;60618;40.084;32.908;2023-02-18T09:24:58;22.55;;;10.00;;
72584;SDS011;60618;40.084;32.908;2023-02-18T09:27:25;28.08;;;11.55;;
72584;SDS011;60618;40.084;32.908;2023-02-18T09:29:52;35.25;;;15.93;;
72584;SDS011;60618;40.084;32.908;2023-02-18T09:32:19;27.63;;;11.80;;
72584;SDS011;60618;40.084;32.908;2023-02-18T09:34:59;28.27;;;13.35;;
72584;SDS011;60618;40.084;32.908;2023-02-18T09:37:26;22.40;;;10.30;;
72584;SDS011;60618;40.084;32.908;2023-02-18T09:39:53;24.58;;;10.55;;
72584;SDS011;60618;40.084;32.908;2023-02-18T09:42:21;28.48;;;11.30;;
72584;SDS011;60618;40.084;32.908;2023-02-18T09:44:57;26.23;;;11.80;;
72584;SDS011;60618;40.084;32.908;2023-02-18T09:47:37;25.30;;;11.98;;
72584;SDS011;60618;40.084;32.908;2023-02-18T09:50:17;26.35;;;11.80;;
72584;SDS011;60618;40.084;32.908;2023-02-18T09:52:46;26.00;;;11.65;;
72584;SDS011;60618;40.084;32.908;2023-02-18T09:55:20;22.08;;;10.88;;
72584;SDS011;60618;40.084;32.908;2023-02-18T09:57:54;26.63;;;12.23;;
72584;SDS011;60618;40.084;32.908;2023-02-18T10:00:28;25.23;;;11.60;;
72584;SDS011;60618;40.084;32.908;2023-02-18T10:03:01;21.33;;;10.52;;
72584;SDS011;60618;40.084;32.908;2023-02-18T10:05:32;21.77;;;10.50;;
72584;SDS011;60618;40.084;32.908;2023-02-18T10:08:03;22.38;;;10.82;;
72584;SDS011;60618;40.084;32.908;2023-02-18T10:10:45;19.57;;;8.87;;
72584;SDS011;60618;40.084;32.908;2023-02-18T10:13:20;19.30;;;8.73;;
72584;SDS011;60618;40.084;32.908;2023-02-18T10:15:49;23.83;;;10.07;;
72584;SDS011;60618;40.084;32.908;2023-02-18T10:18:30;22.52;;;10.10;;
72584;SDS011;60618;40.084;32.908;2023-02-18T10:21:05;19.88;;;9.63;;
72584;SDS011;60618;40.084;32.908;2023-02-18T10:23:40;21.43;;;8.93;;
72584;SDS011;60618;40.084;32.908;2023-02-18T10:26:13;20.67;;;9.18;;
72584;SDS011;60618;40.084;32.908;2023-02-18T10:28:46;22.65;;;10.10;;
72584;SDS011;60618;40.084;32.908;2023-02-18T10:31:16;17.92;;;8.43;;
72584;SDS011;60618;40.084;32.908;2023-02-18T10:33:58;16.90;;;8.35;;
72584;SDS011;60618;40.084;32.908;2023-02-18T10:36:44;17.93;;;8.63;;
72584;SDS011;60618;40.084;32.908;2023-02-18T10:39:30;20.95;;;7.85;;
72584;SDS011;60618;40.084;32.908;2023-02-18T10:42:17;18.45;;;7.60;;
72584;SDS011;60618;40.084;32.908;2023-02-18T10:50:54;18.13;;;8.23;;
72584;SDS011;60618;40.084;32.908;2023-02-18T10:53:29;18.05;;;8.05;;
72584;SDS011;60618;40.084;32.908;2023-02-18T10:56:01;19.70;;;8.90;;
72584;SDS011;60618;40.084;32.908;2023-02-18T11:01:04;17.73;;;8.45;;
72584;SDS011;60618;40.084;32.908;2023-02-18T11:03:43;19.10;;;8.30;;
72584;SDS011;60618;40.084;32.908;2023-02-18T11:06:37;19.42;;;8.95;;
72584;SDS011;60618;40.084;32.908;2023-02-18T11:09:22;19.50;;;9.27;;
72584;SDS011;60618;40.084;32.908;2023-02-18T11:12:05;19.00;;;8.38;;
72584;SDS011;60618;40.084;32.908;2023-02-18T11:14:48;17.67;;;8.02;;
72584;SDS011;60618;40.084;32.908;2023-02-18T11:17:30;15.63;;;8.10;;
72584;SDS011;60618;40.084;32.908;2023-02-18T11:19:59;18.20;;;8.65;;
72584;SDS011;60618;40.084;32.908;2023-02-18T11:22:28;21.10;;;9.07;;
72584;SDS011;60618;40.084;32.908;2023-02-18T11:24:58;19.20;;;7.90;;
72584;SDS011;60618;40.084;32.908;2023-02-18T11:30:16;17.40;;;8.00;;
72584;SDS011;60618;40.084;32.908;2023-02-18T11:32:44;16.52;;;7.65;;
72584;SDS011;60618;40.084;32.908;2023-02-18T11:35:18;16.30;;;7.75;;
72584;SDS011;60618;40.084;32.908;2023-02-18T11:37:48;18.05;;;8.48;;
72584;SDS011;60618;40.084;32.908;2023-02-18T11:40:20;20.02;;;8.07;;
72584;SDS011;60618;40.084;32.908;2023-02-18T11:42:49;18.27;;;8.30;;
72584;SDS011;60618;40.084;32.908;2023-02-18T11:45:27;16.73;;;7.50;;
72584;SDS011;60618;40.084;32.908;2023-02-18T11:47:59;18.10;;;7.68;;
72584;SDS011;60618;40.084;32.908;2023-02-18T11:50:31;17.48;;;8.40;;
72584;SDS011;60618;40.084;32.908;2023-02-18T11:53:00;19.05;;;8.30;;
72584;SDS011;60618;40.084;32.908;2023-02-18T11:55:56;19.17;;;7.97;;
72584;SDS011;60618;40.084;32.908;2023-02-18T11:58:30;17.67;;;7.82;;
72584;SDS011;60618;40.084;32.908;2023-02-18T12:09:24;16.63;;;7.77;;
72584;SDS011;60618;40.084;32.908;2023-02-18T12:12:02;15.95;;;7.43;;
72584;SDS011;60618;40.084;32.908;2023-02-18T12:14:37;19.70;;;9.20;;
72584;SDS011;60618;40.084;32.908;2023-02-18T12:22:42;17.17;;;7.50;;
72584;SDS011;60618;40.084;32.908;2023-02-18T12:34:06;18.55;;;9.18;;
72584;SDS011;60618;40.084;32.908;2023-02-18T12:51:40;16.37;;;7.40;;
72584;SDS011;60618;40.084;32.908;2023-02-18T12:57:03;17.77;;;7.20;;
72584;SDS011;60618;40.084;32.908;2023-02-18T13:02:41;16.58;;;7.60;;
72584;SDS011;60618;40.084;32.908;2023-02-18T13:05:43;14.67;;;7.20;;
72584;SDS011;60618;40.084;32.908;2023-02-18T13:08:37;14.07;;;6.70;;
72584;SDS011;60618;40.084;32.908;2023-02-18T13:16:42;14.90;;;6.93;;
72584;SDS011;60618;40.084;32.908;2023-02-18T13:22:03;18.25;;;6.72;;
72584;SDS011;60618;40.084;32.908;2023-02-18T13:24:33;14.02;;;7.22;;
72584;SDS011;60618;40.084;32.908;2023-02-18T13:27:16;16.33;;;7.53;;
72584;SDS011;60618;40.084;32.908;2023-02-18T13:35:59;18.30;;;7.30;;
72584;SDS011;60618;40.084;32.908;2023-02-18T13:41:17;15.45;;;7.00;;
72584;SDS011;60618;40.084;32.908;2023-02-18T13:43:45;16.90;;;7.30;;
72584;SDS011;60618;40.084;32.908;2023-02-18T13:46:19;16.20;;;7.03;;
72584;SDS011;60618;40.084;32.908;2023-02-18T13:48:49;18.05;;;7.68;;
72584;SDS011;60618;40.084;32.908;2023-02-18T13:53:59;19.25;;;8.10;;
72584;SDS011;60618;40.084;32.908;2023-02-18T13:56:53;19.65;;;7.88;;
72584;SDS011;60618;40.084;32.908;2023-02-18T14:10:05;14.90;;;6.63;;
72584;SDS011;60618;40.084;32.908;2023-02-18T14:12:42;14.33;;;6.40;;
72584;SDS011;60618;40.084;32.908;2023-02-18T14:26:03;19.83;;;6.60;;
72584;SDS011;60618;40.084;32.908;2023-02-18T14:28:43;14.05;;;6.25;;
72584;SDS011;60618;40.084;32.908;2023-02-18T14:37:02;14.40;;;6.72;;
72584;SDS011;60618;40.084;32.908;2023-02-18T14:50:30;18.23;;;7.45;;
72584;SDS011;60618;40.084;32.908;2023-02-18T14:53:06;18.60;;;6.70;;
72584;SDS011;60618;40.084;32.908;2023-02-18T14:55:46;19.02;;;7.50;;
72584;SDS011;60618;40.084;32.908;2023-02-18T14:58:32;16.20;;;7.15;;
72584;SDS011;60618;40.084;32.908;2023-02-18T15:01:15;19.23;;;6.90;;
72584;SDS011;60618;40.084;32.908;2023-02-18T15:03:48;18.77;;;7.18;;
72584;SDS011;60618;40.084;32.908;2023-02-18T15:09:19;16.25;;;7.10;;
72584;SDS011;60618;40.084;32.908;2023-02-18T15:11:55;16.38;;;6.85;;
72584;SDS011;60618;40.084;32.908;2023-02-18T15:14:27;16.85;;;7.20;;
72584;SDS011;60618;40.084;32.908;2023-02-18T15:17:01;16.50;;;7.45;;
72584;SDS011;60618;40.084;32.908;2023-02-18T15:19:33;20.40;;;6.97;;
72584;SDS011;60618;40.084;32.908;2023-02-18T15:22:05;17.33;;;6.60;;
72584;SDS011;60618;40.084;32.908;2023-02-18T15:24:43;16.23;;;6.43;;
72584;SDS011;60618;40.084;32.908;2023-02-18T15:27:13;16.60;;;7.05;;
72584;SDS011;60618;40.084;32.908;2023-02-18T15:29:43;15.88;;;6.85;;
72584;SDS011;60618;40.084;32.908;2023-02-18T15:32:18;15.40;;;6.80;;
72584;SDS011;60618;40.084;32.908;2023-02-18T15:34:53;18.98;;;7.32;;
72584;SDS011;60618;40.084;32.908;2023-02-18T15:37:24;15.77;;;6.68;;
72584;SDS011;60618;40.084;32.908;2023-02-18T15:39:52;17.50;;;7.07;;
72584;SDS011;60618;40.084;32.908;2023-02-18T15:42:32;19.98;;;8.07;;
72584;SDS011;60618;40.084;32.908;2023-02-18T15:47:30;17.98;;;6.93;;
72584;SDS011;60618;40.084;32.908;2023-02-18T15:49:59;17.85;;;6.75;;
72584;SDS011;60618;40.084;32.908;2023-02-18T15:52:29;18.77;;;7.80;;
72584;SDS011;60618;40.084;32.908;2023-02-18T15:55:03;15.93;;;6.78;;
72584;SDS011;60618;40.084;32.908;2023-02-18T15:57:37;18.03;;;7.63;;
72584;SDS011;60618;40.084;32.908;2023-02-18T16:00:13;18.45;;;7.38;;
72584;SDS011;60618;40.084;32.908;2023-02-18T16:02:54;18.20;;;7.88;;
72584;SDS011;60618;40.084;32.908;2023-02-18T16:05:27;16.83;;;7.72;;
72584;SDS011;60618;40.084;32.908;2023-02-18T16:07:59;18.23;;;7.93;;
72584;SDS011;60618;40.084;32.908;2023-02-18T16:12:57;18.38;;;7.78;;
72584;SDS011;60618;40.084;32.908;2023-02-18T16:15:26;19.30;;;8.13;;
72584;SDS011;60618;40.084;32.908;2023-02-18T16:17:59;17.48;;;7.78;;
72584;SDS011;60618;40.084;32.908;2023-02-18T16:20:30;17.23;;;7.70;;
72584;SDS011;60618;40.084;32.908;2023-02-18T16:23:02;17.93;;;7.60;;
72584;SDS011;60618;40.084;32.908;2023-02-18T16:28:06;16.50;;;6.75;;
72584;SDS011;60618;40.084;32.908;2023-02-18T16:30:43;15.68;;;6.93;;
72584;SDS011;60618;40.084;32.908;2023-02-18T16:33:10;17.45;;;7.30;;
72584;SDS011;60618;40.084;32.908;2023-02-18T16:35:39;16.07;;;6.80;;
72584;SDS011;60618;40.084;32.908;2023-02-18T16:38:18;16.23;;;7.03;;
72584;SDS011;60618;40.084;32.908;2023-02-18T16:40:47;14.73;;;6.95;;
72584;SDS011;60618;40.084;32.908;2023-02-18T16:43:16;15.32;;;6.68;;
72584;SDS011;60618;40.084;32.908;2023-02-18T16:45:49;17.67;;;8.43;;
72584;SDS011;60618;40.084;32.908;2023-02-18T16:51:03;16.25;;;7.85;;
72584;SDS011;60618;40.084;32.908;2023-02-18T16:53:33;18.67;;;8.13;;
72584;SDS011;60618;40.084;32.908;2023-02-18T16:55:59;19.25;;;8.07;;
72584;SDS011;60618;40.084;32.908;2023-02-18T16:58:27;17.80;;;7.90;;
72584;SDS011;60618;40.084;32.908;2023-02-18T17:00:55;16.13;;;7.27;;
72584;SDS011;60618;40.084;32.908;2023-02-18T17:03:25;17.58;;;8.00;;
72584;SDS011;60618;40.084;32.908;2023-02-18T17:05:52;19.73;;;8.23;;
72584;SDS011;60618;40.084;32.908;2023-02-18T17:10:54;15.98;;;7.65;;
72584;SDS011;60618;40.084;32.908;2023-02-18T17:13:26;15.67;;;7.47;;
72584;SDS011;60618;40.084;32.908;2023-02-18T17:15:56;17.27;;;7.47;;
72584;SDS011;60618;40.084;32.908;2023-02-18T17:18:24;18.08;;;7.70;;
72584;SDS011;60618;40.084;32.908;2023-02-18T17:20:52;18.25;;;7.68;;
72584;SDS011;60618;40.084;32.908;2023-02-18T17:23:21;15.05;;;7.20;;
72584;SDS011;60618;40.084;32.908;2023-02-18T17:25:50;19.57;;;7.87;;
72584;SDS011;60618;40.084;32.908;2023-02-18T17:28:17;17.48;;;7.85;;